sensor_id;sensor_type;location;lat;lon;timestamp;P1;durP1;ratioP1;P2;durP2;ratioP2
19828;SDS011;10075;50.924;4.396;2024-01-15T00:02:13;32.90;;;15.50;;
19828;SDS011;10075;50.924;4.396;2024-01-15T00:04:40;29.67;;;14.60;;
19828;SDS011;10075;50.924;4.396;2024-01-15T00:07:08;25.77;;;13.80;;
19828;SDS011;10075;50.924;4.396;2024-01-15T00:09:35;29.53;;;13.60;;
19828;SDS011;10075;50.924;4.396;2024-01-15T00:12:02;31.60;;;14.43;;
19828;SDS011;10075;50.924;4.396;2024-01-15T00:14:30;31.30;;;14.13;;
19828;SDS011;10075;50.924;4.396;2024-01-15T00:16:57;25.27;;;14.20;;
19828;SDS011;10075;50.924;4.396;2024-01-15T00:19:25;27.00;;;12.87;;
19828;SDS011;10075;50.924;4.396;2024-01-15T00:21:52;30.70;;;13.10;;
19828;SDS011;10075;50.924;4.396;2024-01-15T00:24:19;27.57;;;13.70;;
19828;SDS011;10075;50.924;4.396;2024-01-15T00:26:46;26.97;;;12.93;;
19828;SDS011;10075;50.924;4.396;2024-01-15T00:29:13;30.60;;;12.60;;
19828;SDS011;10075;50.924;4.396;2024-01-15T00:31:40;21.13;;;11.87;;
19828;SDS011;10075;50.924;4.396;2024-01-15T00:34:07;23.57;;;12.53;;
19828;SDS011;10075;50.924;4.396;2024-01-15T00:36:35;21.63;;;11.97;;
19828;SDS011;10075;50.924;4.396;2024-01-15T00:39:02;22.30;;;11.33;;
19828;SDS011;10075;50.924;4.396;2024-01-15T00:41:30;18.70;;;10.20;;
19828;SDS011;10075;50.924;4.396;2024-01-15T00:43:57;23.43;;;11.23;;
19828;SDS011;10075;50.924;4.396;2024-01-15T00:46:24;21.20;;;11.47;;
19828;SDS011;10075;50.924;4.396;2024-01-15T00:48:51;23.43;;;11.87;;
19828;SDS011;10075;50.924;4.396;2024-01-15T00:51:18;24.20;;;11.17;;
19828;SDS011;10075;50.924;4.396;2024-01-15T00:53:46;19.20;;;11.27;;
19828;SDS011;10075;50.924;4.396;2024-01-15T00:56:13;19.27;;;10.80;;
19828;SDS011;10075;50.924;4.396;2024-01-15T00:58:40;23.13;;;10.40;;
19828;SDS011;10075;50.924;4.396;2024-01-15T01:01:07;22.93;;;9.73;;
19828;SDS011;10075;50.924;4.396;2024-01-15T01:03:34;19.57;;;9.87;;
19828;SDS011;10075;50.924;4.396;2024-01-15T01:06:01;19.63;;;8.97;;
19828;SDS011;10075;50.924;4.396;2024-01-15T01:08:28;16.90;;;9.80;;
19828;SDS011;10075;50.924;4.396;2024-01-15T01:10:56;17.57;;;8.30;;
19828;SDS011;10075;50.924;4.396;2024-01-15T01:13:23;20.87;;;8.67;;
19828;SDS011;10075;50.924;4.396;2024-01-15T01:15:50;17.30;;;9.53;;
19828;SDS011;10075;50.924;4.396;2024-01-15T01:18:17;24.37;;;9.10;;
19828;SDS011;10075;50.924;4.396;2024-01-15T01:20:44;17.20;;;9.40;;
19828;SDS011;10075;50.924;4.396;2024-01-15T01:23:11;18.47;;;8.53;;
19828;SDS011;10075;50.924;4.396;2024-01-15T01:25:38;17.43;;;8.63;;
19828;SDS011;10075;50.924;4.396;2024-01-15T01:28:07;20.63;;;8.20;;
19828;SDS011;10075;50.924;4.396;2024-01-15T01:30:34;12.50;;;8.10;;
19828;SDS011;10075;50.924;4.396;2024-01-15T01:33:01;12.20;;;7.73;;
19828;SDS011;10075;50.924;4.396;2024-01-15T01:35:28;13.40;;;8.90;;
19828;SDS011;10075;50.924;4.396;2024-01-15T01:37:55;13.40;;;8.07;;
19828;SDS011;10075;50.924;4.396;2024-01-15T01:40:22;15.83;;;7.30;;
19828;SDS011;10075;50.924;4.396;2024-01-15T01:42:49;16.87;;;7.60;;
19828;SDS011;10075;50.924;4.396;2024-01-15T01:45:17;14.30;;;7.47;;
19828;SDS011;10075;50.924;4.396;2024-01-15T01:47:44;12.57;;;6.53;;
19828;SDS011;10075;50.924;4.396;2024-01-15T01:50:11;9.40;;;6.07;;
19828;SDS011;10075;50.924;4.396;2024-01-15T01:52:39;11.17;;;6.10;;
19828;SDS011;10075;50.924;4.396;2024-01-15T01:55:07;13.43;;;6.57;;
19828;SDS011;10075;50.924;4.396;2024-01-15T01:57:37;8.97;;;5.77;;
19828;SDS011;10075;50.924;4.396;2024-01-15T02:00:05;9.23;;;6.13;;
19828;SDS011;10075;50.924;4.396;2024-01-15T02:02:34;11.50;;;5.90;;
19828;SDS011;10075;50.924;4.396;2024-01-15T02:05:02;11.90;;;5.33;;
19828;SDS011;10075;50.924;4.396;2024-01-15T02:07:31;9.07;;;5.03;;
19828;SDS011;10075;50.924;4.396;2024-01-15T02:10:00;10.10;;;4.70;;
19828;SDS011;10075;50.924;4.396;2024-01-15T02:12:27;8.33;;;4.57;;
19828;SDS011;10075;50.924;4.396;2024-01-15T02:14:54;5.57;;;4.43;;
19828;SDS011;10075;50.924;4.396;2024-01-15T02:17:21;11.10;;;5.37;;
19828;SDS011;10075;50.924;4.396;2024-01-15T02:19:50;11.83;;;5.03;;
19828;SDS011;10075;50.924;4.396;2024-01-15T02:22:17;8.20;;;4.97;;
19828;SDS011;10075;50.924;4.396;2024-01-15T02:24:45;6.60;;;4.70;;
19828;SDS011;10075;50.924;4.396;2024-01-15T02:27:12;8.80;;;4.73;;
19828;SDS011;10075;50.924;4.396;2024-01-15T02:29:39;8.20;;;4.77;;
19828;SDS011;10075;50.924;4.396;2024-01-15T02:32:08;5.83;;;4.40;;
19828;SDS011;10075;50.924;4.396;2024-01-15T02:34:35;12.97;;;4.60;;
19828;SDS011;10075;50.924;4.396;2024-01-15T02:37:02;6.97;;;3.97;;
19828;SDS011;10075;50.924;4.396;2024-01-15T02:39:29;7.50;;;3.93;;
19828;SDS011;10075;50.924;4.396;2024-01-15T02:41:57;7.20;;;4.07;;
19828;SDS011;10075;50.924;4.396;2024-01-15T02:44:24;10.53;;;4.17;;
19828;SDS011;10075;50.924;4.396;2024-01-15T02:46:51;8.90;;;3.90;;
19828;SDS011;10075;50.924;4.396;2024-01-15T02:49:18;11.83;;;4.10;;
19828;SDS011;10075;50.924;4.396;2024-01-15T02:51:45;8.80;;;3.90;;
19828;SDS011;10075;50.924;4.396;2024-01-15T02:54:13;8.83;;;4.00;;
19828;SDS011;10075;50.924;4.396;2024-01-15T02:56:40;7.57;;;3.67;;
19828;SDS011;10075;50.924;4.396;2024-01-15T02:59:08;11.70;;;4.20;;
19828;SDS011;10075;50.924;4.396;2024-01-15T03:01:35;6.73;;;3.27;;
19828;SDS011;10075;50.924;4.396;2024-01-15T03:04:02;11.13;;;4.30;;
19828;SDS011;10075;50.924;4.396;2024-01-15T03:06:29;6.57;;;3.60;;
19828;SDS011;10075;50.924;4.396;2024-01-15T03:08:56;6.17;;;3.87;;
19828;SDS011;10075;50.924;4.396;2024-01-15T03:11:23;8.53;;;3.87;;
19828;SDS011;10075;50.924;4.396;2024-01-15T03:13:51;9.57;;;3.90;;
19828;SDS011;10075;50.924;4.396;2024-01-15T03:16:19;6.77;;;4.03;;
19828;SDS011;10075;50.924;4.396;2024-01-15T03:18:46;8.13;;;3.80;;
19828;SDS011;10075;50.924;4.396;2024-01-15T03:21:13;6.03;;;3.57;;
19828;SDS011;10075;50.924;4.396;2024-01-15T03:23:40;7.97;;;3.90;;
19828;SDS011;10075;50.924;4.396;2024-01-15T03:26:07;5.63;;;3.50;;
19828;SDS011;10075;50.924;4.396;2024-01-15T03:28:34;9.07;;;3.83;;
19828;SDS011;10075;50.924;4.396;2024-01-15T03:31:00;8.13;;;4.33;;
19828;SDS011;10075;50.924;4.396;2024-01-15T03:33:29;7.37;;;4.13;;
19828;SDS011;10075;50.924;4.396;2024-01-15T03:35:56;10.30;;;4.20;;
19828;SDS011;10075;50.924;4.396;2024-01-15T03:38:23;9.43;;;4.27;;
19828;SDS011;10075;50.924;4.396;2024-01-15T03:40:50;7.43;;;3.90;;
19828;SDS011;10075;50.924;4.396;2024-01-15T03:43:17;10.63;;;4.30;;
19828;SDS011;10075;50.924;4.396;2024-01-15T03:45:44;6.93;;;4.10;;
19828;SDS011;10075;50.924;4.396;2024-01-15T03:48:11;8.17;;;4.70;;
19828;SDS011;10075;50.924;4.396;2024-01-15T03:50:40;9.73;;;5.17;;
19828;SDS011;10075;50.924;4.396;2024-01-15T03:53:07;7.83;;;4.90;;
19828;SDS011;10075;50.924;4.396;2024-01-15T03:55:33;10.43;;;6.13;;
19828;SDS011;10075;50.924;4.396;2024-01-15T03:58:00;10.47;;;5.47;;
19828;SDS011;10075;50.924;4.396;2024-01-15T04:00:27;11.43;;;6.27;;
19828;SDS011;10075;50.924;4.396;2024-01-15T04:02:54;10.73;;;6.27;;
19828;SDS011;10075;50.924;4.396;2024-01-15T04:05:21;9.83;;;6.10;;
19828;SDS011;10075;50.924;4.396;2024-01-15T04:07:49;11.67;;;6.90;;
19828;SDS011;10075;50.924;4.396;2024-01-15T04:10:16;10.00;;;6.33;;
19828;SDS011;10075;50.924;4.396;2024-01-15T04:12:43;12.07;;;7.20;;
19828;SDS011;10075;50.924;4.396;2024-01-15T04:15:11;13.17;;;6.43;;
19828;SDS011;10075;50.924;4.396;2024-01-15T04:17:38;13.33;;;7.40;;
19828;SDS011;10075;50.924;4.396;2024-01-15T04:20:05;17.30;;;7.70;;
19828;SDS011;10075;50.924;4.396;2024-01-15T04:22:33;13.37;;;7.67;;
19828;SDS011;10075;50.924;4.396;2024-01-15T04:25:03;16.03;;;8.03;;
19828;SDS011;10075;50.924;4.396;2024-01-15T04:27:30;14.37;;;8.03;;
19828;SDS011;10075;50.924;4.396;2024-01-15T04:29:57;14.10;;;8.53;;
19828;SDS011;10075;50.924;4.396;2024-01-15T04:32:24;13.10;;;8.20;;
19828;SDS011;10075;50.924;4.396;2024-01-15T04:34:51;12.33;;;7.47;;
19828;SDS011;10075;50.924;4.396;2024-01-15T04:37:18;16.67;;;8.90;;
19828;SDS011;10075;50.924;4.396;2024-01-15T04:39:45;16.53;;;8.23;;
19828;SDS011;10075;50.924;4.396;2024-01-15T04:42:13;14.07;;;7.87;;
19828;SDS011;10075;50.924;4.396;2024-01-15T04:44:40;14.33;;;8.57;;
19828;SDS011;10075;50.924;4.396;2024-01-15T04:47:07;14.97;;;8.83;;
19828;SDS011;10075;50.924;4.396;2024-01-15T04:49:34;14.90;;;8.10;;
19828;SDS011;10075;50.924;4.396;2024-01-15T04:52:01;12.30;;;7.67;;
19828;SDS011;10075;50.924;4.396;2024-01-15T04:54:28;16.13;;;8.47;;
19828;SDS011;10075;50.924;4.396;2024-01-15T04:56:55;14.00;;;7.37;;
19828;SDS011;10075;50.924;4.396;2024-01-15T04:59:23;11.60;;;6.80;;
19828;SDS011;10075;50.924;4.396;2024-01-15T05:01:50;14.00;;;7.30;;
19828;SDS011;10075;50.924;4.396;2024-01-15T05:04:17;12.17;;;6.90;;
19828;SDS011;10075;50.924;4.396;2024-01-15T05:06:44;14.27;;;6.83;;
19828;SDS011;10075;50.924;4.396;2024-01-15T05:09:11;12.47;;;5.30;;
19828;SDS011;10075;50.924;4.396;2024-01-15T05:11:38;12.07;;;5.13;;
19828;SDS011;10075;50.924;4.396;2024-01-15T05:14:05;10.57;;;5.17;;
19828;SDS011;10075;50.924;4.396;2024-01-15T05:16:33;10.27;;;4.50;;
19828;SDS011;10075;50.924;4.396;2024-01-15T05:19:00;9.43;;;3.80;;
19828;SDS011;10075;50.924;4.396;2024-01-15T05:21:27;15.60;;;4.97;;
19828;SDS011;10075;50.924;4.396;2024-01-15T05:23:54;13.40;;;4.17;;
19828;SDS011;10075;50.924;4.396;2024-01-15T05:26:21;12.97;;;3.90;;
19828;SDS011;10075;50.924;4.396;2024-01-15T05:28:48;9.67;;;4.17;;
19828;SDS011;10075;50.924;4.396;2024-01-15T05:31:15;8.57;;;3.30;;
19828;SDS011;10075;50.924;4.396;2024-01-15T05:33:43;12.53;;;3.17;;
19828;SDS011;10075;50.924;4.396;2024-01-15T05:36:10;7.47;;;2.60;;
19828;SDS011;10075;50.924;4.396;2024-01-15T05:38:38;7.83;;;2.37;;
19828;SDS011;10075;50.924;4.396;2024-01-15T05:41:05;7.67;;;2.17;;
19828;SDS011;10075;50.924;4.396;2024-01-15T05:43:32;4.67;;;2.13;;
19828;SDS011;10075;50.924;4.396;2024-01-15T05:45:59;6.07;;;1.93;;
19828;SDS011;10075;50.924;4.396;2024-01-15T05:48:26;4.93;;;1.93;;
19828;SDS011;10075;50.924;4.396;2024-01-15T05:50:54;9.40;;;2.50;;
19828;SDS011;10075;50.924;4.396;2024-01-15T05:53:21;10.50;;;2.70;;
19828;SDS011;10075;50.924;4.396;2024-01-15T05:55:48;7.97;;;2.10;;
19828;SDS011;10075;50.924;4.396;2024-01-15T05:58:15;5.80;;;2.20;;
19828;SDS011;10075;50.924;4.396;2024-01-15T06:00:42;8.67;;;2.13;;
19828;SDS011;10075;50.924;4.396;2024-01-15T06:03:09;7.70;;;2.13;;
19828;SDS011;10075;50.924;4.396;2024-01-15T06:05:36;5.20;;;2.20;;
19828;SDS011;10075;50.924;4.396;2024-01-15T06:08:04;6.87;;;2.27;;
19828;SDS011;10075;50.924;4.396;2024-01-15T06:10:31;6.53;;;1.97;;
19828;SDS011;10075;50.924;4.396;2024-01-15T06:12:58;9.83;;;2.10;;
19828;SDS011;10075;50.924;4.396;2024-01-15T06:15:25;6.73;;;1.60;;
19828;SDS011;10075;50.924;4.396;2024-01-15T06:17:52;5.30;;;1.60;;
19828;SDS011;10075;50.924;4.396;2024-01-15T06:20:19;10.23;;;1.80;;
19828;SDS011;10075;50.924;4.396;2024-01-15T06:22:46;3.63;;;1.30;;
19828;SDS011;10075;50.924;4.396;2024-01-15T06:25:15;4.13;;;1.20;;
19828;SDS011;10075;50.924;4.396;2024-01-15T06:27:41;5.77;;;1.63;;
19828;SDS011;10075;50.924;4.396;2024-01-15T06:30:09;6.50;;;1.80;;
19828;SDS011;10075;50.924;4.396;2024-01-15T06:32:37;4.13;;;1.40;;
19828;SDS011;10075;50.924;4.396;2024-01-15T06:35:04;5.10;;;1.30;;
19828;SDS011;10075;50.924;4.396;2024-01-15T06:37:32;2.73;;;1.27;;
19828;SDS011;10075;50.924;4.396;2024-01-15T06:39:59;7.40;;;1.80;;
19828;SDS011;10075;50.924;4.396;2024-01-15T06:42:27;5.97;;;1.90;;
19828;SDS011;10075;50.924;4.396;2024-01-15T06:44:54;4.03;;;1.57;;
19828;SDS011;10075;50.924;4.396;2024-01-15T06:47:21;5.50;;;1.80;;
19828;SDS011;10075;50.924;4.396;2024-01-15T06:49:48;4.63;;;1.87;;
19828;SDS011;10075;50.924;4.396;2024-01-15T06:52:15;3.23;;;1.60;;
19828;SDS011;10075;50.924;4.396;2024-01-15T06:54:42;7.20;;;1.87;;
19828;SDS011;10075;50.924;4.396;2024-01-15T06:57:10;4.70;;;1.87;;
19828;SDS011;10075;50.924;4.396;2024-01-15T06:59:38;12.13;;;2.47;;
19828;SDS011;10075;50.924;4.396;2024-01-15T07:02:06;10.67;;;2.40;;
19828;SDS011;10075;50.924;4.396;2024-01-15T07:04:33;8.67;;;2.17;;
19828;SDS011;10075;50.924;4.396;2024-01-15T07:07:00;9.13;;;2.10;;
19828;SDS011;10075;50.924;4.396;2024-01-15T07:09:27;8.47;;;2.27;;
19828;SDS011;10075;50.924;4.396;2024-01-15T07:11:53;8.07;;;2.70;;
19828;SDS011;10075;50.924;4.396;2024-01-15T07:14:22;8.23;;;2.57;;
19828;SDS011;10075;50.924;4.396;2024-01-15T07:16:50;13.13;;;2.60;;
19828;SDS011;10075;50.924;4.396;2024-01-15T07:19:17;5.90;;;2.30;;
19828;SDS011;10075;50.924;4.396;2024-01-15T07:21:44;11.33;;;3.03;;
19828;SDS011;10075;50.924;4.396;2024-01-15T07:24:11;6.77;;;2.07;;
19828;SDS011;10075;50.924;4.396;2024-01-15T07:26:38;8.37;;;2.50;;
19828;SDS011;10075;50.924;4.396;2024-01-15T07:29:05;7.10;;;2.10;;
19828;SDS011;10075;50.924;4.396;2024-01-15T07:31:33;7.43;;;2.20;;
19828;SDS011;10075;50.924;4.396;2024-01-15T07:34:01;10.07;;;2.80;;
19828;SDS011;10075;50.924;4.396;2024-01-15T07:36:29;9.20;;;2.77;;
19828;SDS011;10075;50.924;4.396;2024-01-15T07:38:56;4.70;;;1.97;;
19828;SDS011;10075;50.924;4.396;2024-01-15T07:41:23;4.00;;;1.87;;
19828;SDS011;10075;50.924;4.396;2024-01-15T07:43:50;9.00;;;2.40;;
19828;SDS011;10075;50.924;4.396;2024-01-15T07:46:17;6.70;;;2.30;;
19828;SDS011;10075;50.924;4.396;2024-01-15T07:48:44;10.53;;;2.47;;
19828;SDS011;10075;50.924;4.396;2024-01-15T07:51:12;8.90;;;2.40;;
19828;SDS011;10075;50.924;4.396;2024-01-15T07:53:40;6.73;;;2.80;;
19828;SDS011;10075;50.924;4.396;2024-01-15T07:56:07;5.53;;;1.93;;
19828;SDS011;10075;50.924;4.396;2024-01-15T07:58:33;11.53;;;3.00;;
19828;SDS011;10075;50.924;4.396;2024-01-15T08:01:00;7.77;;;1.90;;
19828;SDS011;10075;50.924;4.396;2024-01-15T08:03:27;5.03;;;2.27;;
19828;SDS011;10075;50.924;4.396;2024-01-15T08:05:54;10.00;;;3.03;;
19828;SDS011;10075;50.924;4.396;2024-01-15T08:08:24;11.33;;;2.93;;
19828;SDS011;10075;50.924;4.396;2024-01-15T08:10:52;6.30;;;2.20;;
19828;SDS011;10075;50.924;4.396;2024-01-15T08:13:19;4.47;;;2.27;;
19828;SDS011;10075;50.924;4.396;2024-01-15T08:15:46;7.27;;;2.30;;
19828;SDS011;10075;50.924;4.396;2024-01-15T08:18:13;6.50;;;2.30;;
19828;SDS011;10075;50.924;4.396;2024-01-15T08:20:40;9.13;;;2.50;;
19828;SDS011;10075;50.924;4.396;2024-01-15T08:23:07;9.10;;;2.73;;
19828;SDS011;10075;50.924;4.396;2024-01-15T08:25:36;13.00;;;2.63;;
19828;SDS011;10075;50.924;4.396;2024-01-15T08:28:03;8.83;;;2.10;;
19828;SDS011;10075;50.924;4.396;2024-01-15T08:30:30;8.00;;;2.77;;
19828;SDS011;10075;50.924;4.396;2024-01-15T08:32:57;9.93;;;2.97;;
19828;SDS011;10075;50.924;4.396;2024-01-15T08:35:24;9.23;;;3.03;;
19828;SDS011;10075;50.924;4.396;2024-01-15T08:37:51;5.77;;;2.13;;
19828;SDS011;10075;50.924;4.396;2024-01-15T08:40:19;5.77;;;2.03;;
19828;SDS011;10075;50.924;4.396;2024-01-15T08:42:47;7.90;;;1.90;;
19828;SDS011;10075;50.924;4.396;2024-01-15T08:45:14;10.53;;;1.83;;
19828;SDS011;10075;50.924;4.396;2024-01-15T08:47:41;10.30;;;2.07;;
19828;SDS011;10075;50.924;4.396;2024-01-15T08:50:08;10.70;;;2.37;;
19828;SDS011;10075;50.924;4.396;2024-01-15T08:52:35;14.00;;;2.87;;
19828;SDS011;10075;50.924;4.396;2024-01-15T08:55:02;10.40;;;2.10;;
19828;SDS011;10075;50.924;4.396;2024-01-15T08:57:32;11.87;;;2.23;;
19828;SDS011;10075;50.924;4.396;2024-01-15T09:00:00;10.17;;;2.00;;
19828;SDS011;10075;50.924;4.396;2024-01-15T09:02:28;6.77;;;2.27;;
19828;SDS011;10075;50.924;4.396;2024-01-15T09:04:55;10.00;;;5.80;;
19828;SDS011;10075;50.924;4.396;2024-01-15T09:07:22;14.73;;;7.70;;
19828;SDS011;10075;50.924;4.396;2024-01-15T09:09:50;15.67;;;5.33;;
19828;SDS011;10075;50.924;4.396;2024-01-15T09:12:17;7.83;;;2.23;;
19828;SDS011;10075;50.924;4.396;2024-01-15T09:14:46;8.87;;;2.53;;
19828;SDS011;10075;50.924;4.396;2024-01-15T09:17:14;11.80;;;2.43;;
19828;SDS011;10075;50.924;4.396;2024-01-15T09:19:41;8.07;;;1.97;;
19828;SDS011;10075;50.924;4.396;2024-01-15T09:22:08;8.80;;;2.40;;
19828;SDS011;10075;50.924;4.396;2024-01-15T09:24:35;8.03;;;1.77;;
19828;SDS011;10075;50.924;4.396;2024-01-15T09:27:02;10.63;;;2.27;;
19828;SDS011;10075;50.924;4.396;2024-01-15T09:29:29;7.97;;;1.80;;
19828;SDS011;10075;50.924;4.396;2024-01-15T09:31:56;7.13;;;1.83;;
19828;SDS011;10075;50.924;4.396;2024-01-15T09:34:25;14.47;;;1.90;;
19828;SDS011;10075;50.924;4.396;2024-01-15T09:36:52;4.67;;;1.93;;
19828;SDS011;10075;50.924;4.396;2024-01-15T09:39:19;8.13;;;1.87;;
19828;SDS011;10075;50.924;4.396;2024-01-15T09:41:46;8.03;;;2.07;;
19828;SDS011;10075;50.924;4.396;2024-01-15T09:44:14;10.33;;;1.77;;
19828;SDS011;10075;50.924;4.396;2024-01-15T09:46:42;6.20;;;2.17;;
19828;SDS011;10075;50.924;4.396;2024-01-15T09:49:09;10.67;;;2.43;;
19828;SDS011;10075;50.924;4.396;2024-01-15T09:51:38;10.43;;;2.60;;
19828;SDS011;10075;50.924;4.396;2024-01-15T09:54:06;10.13;;;2.60;;
19828;SDS011;10075;50.924;4.396;2024-01-15T09:56:33;8.70;;;3.40;;
19828;SDS011;10075;50.924;4.396;2024-01-15T09:59:01;7.57;;;2.83;;
19828;SDS011;10075;50.924;4.396;2024-01-15T10:01:29;10.67;;;1.80;;
19828;SDS011;10075;50.924;4.396;2024-01-15T10:03:58;8.23;;;1.47;;
19828;SDS011;10075;50.924;4.396;2024-01-15T10:06:26;7.20;;;1.73;;
19828;SDS011;10075;50.924;4.396;2024-01-15T10:08:55;10.90;;;2.00;;
19828;SDS011;10075;50.924;4.396;2024-01-15T10:11:24;11.30;;;1.70;;
19828;SDS011;10075;50.924;4.396;2024-01-15T10:13:51;8.53;;;1.83;;
19828;SDS011;10075;50.924;4.396;2024-01-15T10:16:20;10.10;;;1.83;;
19828;SDS011;10075;50.924;4.396;2024-01-15T10:18:47;8.30;;;1.70;;
19828;SDS011;10075;50.924;4.396;2024-01-15T10:21:14;7.53;;;1.83;;
19828;SDS011;10075;50.924;4.396;2024-01-15T10:23:41;8.53;;;1.73;;
19828;SDS011;10075;50.924;4.396;2024-01-15T10:26:09;9.60;;;1.70;;
19828;SDS011;10075;50.924;4.396;2024-01-15T10:28:37;9.70;;;1.90;;
19828;SDS011;10075;50.924;4.396;2024-01-15T10:31:04;9.53;;;1.80;;
19828;SDS011;10075;50.924;4.396;2024-01-15T10:33:31;6.53;;;1.37;;
19828;SDS011;10075;50.924;4.396;2024-01-15T10:35:59;5.87;;;1.80;;
19828;SDS011;10075;50.924;4.396;2024-01-15T10:38:27;9.63;;;1.87;;
19828;SDS011;10075;50.924;4.396;2024-01-15T10:40:54;5.90;;;1.57;;
19828;SDS011;10075;50.924;4.396;2024-01-15T10:43:23;4.63;;;1.50;;
19828;SDS011;10075;50.924;4.396;2024-01-15T10:45:50;8.70;;;2.33;;
19828;SDS011;10075;50.924;4.396;2024-01-15T10:48:18;5.70;;;1.90;;
19828;SDS011;10075;50.924;4.396;2024-01-15T10:50:45;6.43;;;2.30;;
19828;SDS011;10075;50.924;4.396;2024-01-15T10:53:14;7.30;;;2.07;;
19828;SDS011;10075;50.924;4.396;2024-01-15T10:55:43;9.40;;;1.90;;
19828;SDS011;10075;50.924;4.396;2024-01-15T10:58:13;7.17;;;1.80;;
19828;SDS011;10075;50.924;4.396;2024-01-15T11:00:43;10.63;;;2.20;;
19828;SDS011;10075;50.924;4.396;2024-01-15T11:03:11;6.33;;;1.57;;
19828;SDS011;10075;50.924;4.396;2024-01-15T11:05:38;7.33;;;1.80;;
19828;SDS011;10075;50.924;4.396;2024-01-15T11:08:07;6.60;;;1.80;;
19828;SDS011;10075;50.924;4.396;2024-01-15T11:10:39;6.33;;;1.40;;
19828;SDS011;10075;50.924;4.396;2024-01-15T11:13:13;8.10;;;1.80;;
19828;SDS011;10075;50.924;4.396;2024-01-15T11:15:59;9.93;;;1.57;;
19828;SDS011;10075;50.924;4.396;2024-01-15T11:18:28;11.00;;;1.70;;
19828;SDS011;10075;50.924;4.396;2024-01-15T11:23:51;6.10;;;1.70;;
19828;SDS011;10075;50.924;4.396;2024-01-15T11:26:28;4.70;;;1.33;;
19828;SDS011;10075;50.924;4.396;2024-01-15T11:29:00;6.40;;;1.40;;
19828;SDS011;10075;50.924;4.396;2024-01-15T11:37:16;5.20;;;1.80;;
19828;SDS011;10075;50.924;4.396;2024-01-15T11:39:44;6.50;;;1.47;;
19828;SDS011;10075;50.924;4.396;2024-01-15T11:42:12;5.40;;;1.30;;
19828;SDS011;10075;50.924;4.396;2024-01-15T11:44:39;5.73;;;1.40;;
19828;SDS011;10075;50.924;4.396;2024-01-15T11:47:08;5.87;;;1.33;;
19828;SDS011;10075;50.924;4.396;2024-01-15T11:52:25;23.03;;;3.37;;
19828;SDS011;10075;50.924;4.396;2024-01-15T11:55:00;10.33;;;1.57;;
19828;SDS011;10075;50.924;4.396;2024-01-15T11:57:34;6.07;;;1.10;;
19828;SDS011;10075;50.924;4.396;2024-01-15T12:00:08;6.83;;;1.47;;
19828;SDS011;10075;50.924;4.396;2024-01-15T12:02:38;6.53;;;1.50;;
19828;SDS011;10075;50.924;4.396;2024-01-15T12:05:06;8.20;;;1.50;;
19828;SDS011;10075;50.924;4.396;2024-01-15T12:07:34;9.97;;;2.00;;
19828;SDS011;10075;50.924;4.396;2024-01-15T12:10:01;14.67;;;1.90;;
19828;SDS011;10075;50.924;4.396;2024-01-15T12:12:31;12.63;;;1.73;;
19828;SDS011;10075;50.924;4.396;2024-01-15T12:15:04;5.67;;;1.73;;
19828;SDS011;10075;50.924;4.396;2024-01-15T12:17:31;4.03;;;1.47;;
19828;SDS011;10075;50.924;4.396;2024-01-15T12:19:59;5.37;;;1.50;;
19828;SDS011;10075;50.924;4.396;2024-01-15T12:22:27;7.83;;;1.80;;
19828;SDS011;10075;50.924;4.396;2024-01-15T12:24:54;5.73;;;1.30;;
19828;SDS011;10075;50.924;4.396;2024-01-15T12:27:21;8.60;;;2.00;;
19828;SDS011;10075;50.924;4.396;2024-01-15T12:29:48;8.80;;;1.77;;
19828;SDS011;10075;50.924;4.396;2024-01-15T12:32:15;6.77;;;2.10;;
19828;SDS011;10075;50.924;4.396;2024-01-15T12:34:42;14.30;;;2.30;;
19828;SDS011;10075;50.924;4.396;2024-01-15T12:37:11;4.27;;;1.30;;
19828;SDS011;10075;50.924;4.396;2024-01-15T12:39:38;8.97;;;2.10;;
19828;SDS011;10075;50.924;4.396;2024-01-15T12:42:05;7.17;;;1.30;;
19828;SDS011;10075;50.924;4.396;2024-01-15T12:44:32;8.00;;;1.73;;
19828;SDS011;10075;50.924;4.396;2024-01-15T12:47:00;9.10;;;1.70;;
19828;SDS011;10075;50.924;4.396;2024-01-15T12:49:28;10.37;;;2.03;;
19828;SDS011;10075;50.924;4.396;2024-01-15T12:51:56;7.50;;;1.57;;
19828;SDS011;10075;50.924;4.396;2024-01-15T12:54:25;8.50;;;2.10;;
19828;SDS011;10075;50.924;4.396;2024-01-15T12:56:52;8.30;;;1.97;;
19828;SDS011;10075;50.924;4.396;2024-01-15T12:59:19;10.93;;;2.10;;
19828;SDS011;10075;50.924;4.396;2024-01-15T13:01:46;13.23;;;1.77;;
19828;SDS011;10075;50.924;4.396;2024-01-15T13:04:20;8.17;;;2.10;;
19828;SDS011;10075;50.924;4.396;2024-01-15T13:06:48;10.23;;;2.17;;
19828;SDS011;10075;50.924;4.396;2024-01-15T13:09:16;10.63;;;1.47;;
19828;SDS011;10075;50.924;4.396;2024-01-15T13:11:44;16.23;;;6.03;;
19828;SDS011;10075;50.924;4.396;2024-01-15T13:14:12;12.70;;;5.90;;
19828;SDS011;10075;50.924;4.396;2024-01-15T13:16:39;9.37;;;2.70;;
19828;SDS011;10075;50.924;4.396;2024-01-15T13:19:07;10.40;;;1.63;;
19828;SDS011;10075;50.924;4.396;2024-01-15T13:21:36;9.93;;;1.73;;
19828;SDS011;10075;50.924;4.396;2024-01-15T13:24:03;7.10;;;2.00;;
19828;SDS011;10075;50.924;4.396;2024-01-15T13:26:30;6.90;;;2.23;;
19828;SDS011;10075;50.924;4.396;2024-01-15T13:28:59;11.10;;;2.67;;
19828;SDS011;10075;50.924;4.396;2024-01-15T13:31:26;13.53;;;3.53;;
19828;SDS011;10075;50.924;4.396;2024-01-15T13:33:53;14.70;;;2.53;;
19828;SDS011;10075;50.924;4.396;2024-01-15T13:36:21;14.23;;;2.77;;
19828;SDS011;10075;50.924;4.396;2024-01-15T13:38:48;8.77;;;3.27;;
19828;SDS011;10075;50.924;4.396;2024-01-15T13:41:15;10.90;;;2.23;;
19828;SDS011;10075;50.924;4.396;2024-01-15T13:43:44;6.60;;;1.83;;
19828;SDS011;10075;50.924;4.396;2024-01-15T13:46:16;3.57;;;1.10;;
19828;SDS011;10075;50.924;4.396;2024-01-15T13:48:43;4.77;;;1.17;;
19828;SDS011;10075;50.924;4.396;2024-01-15T13:51:10;6.23;;;0.90;;
19828;SDS011;10075;50.924;4.396;2024-01-15T13:53:37;2.33;;;0.87;;
19828;SDS011;10075;50.924;4.396;2024-01-15T13:56:05;1.40;;;0.90;;
19828;SDS011;10075;50.924;4.396;2024-01-15T13:58:32;1.33;;;0.80;;
19828;SDS011;10075;50.924;4.396;2024-01-15T14:01:00;2.57;;;1.00;;
19828;SDS011;10075;50.924;4.396;2024-01-15T14:03:30;1.73;;;0.90;;
19828;SDS011;10075;50.924;4.396;2024-01-15T14:05:56;5.07;;;1.23;;
19828;SDS011;10075;50.924;4.396;2024-01-15T14:08:23;7.07;;;1.20;;
19828;SDS011;10075;50.924;4.396;2024-01-15T14:10:51;2.43;;;1.27;;
19828;SDS011;10075;50.924;4.396;2024-01-15T14:13:19;4.70;;;1.70;;
19828;SDS011;10075;50.924;4.396;2024-01-15T14:15:46;3.17;;;1.30;;
19828;SDS011;10075;50.924;4.396;2024-01-15T14:18:13;2.63;;;1.20;;
19828;SDS011;10075;50.924;4.396;2024-01-15T14:20:42;4.37;;;1.47;;
19828;SDS011;10075;50.924;4.396;2024-01-15T14:23:09;6.37;;;1.53;;
19828;SDS011;10075;50.924;4.396;2024-01-15T14:25:36;6.10;;;1.60;;
19828;SDS011;10075;50.924;4.396;2024-01-15T14:28:04;8.07;;;2.63;;
19828;SDS011;10075;50.924;4.396;2024-01-15T14:30:31;5.37;;;1.80;;
19828;SDS011;10075;50.924;4.396;2024-01-15T14:32:58;6.93;;;2.47;;
19828;SDS011;10075;50.924;4.396;2024-01-15T14:35:25;7.77;;;2.20;;
19828;SDS011;10075;50.924;4.396;2024-01-15T14:37:54;8.23;;;2.40;;
19828;SDS011;10075;50.924;4.396;2024-01-15T14:40:22;8.43;;;2.60;;
19828;SDS011;10075;50.924;4.396;2024-01-15T14:42:49;8.53;;;2.40;;
19828;SDS011;10075;50.924;4.396;2024-01-15T14:45:16;8.67;;;2.47;;
19828;SDS011;10075;50.924;4.396;2024-01-15T14:47:43;6.37;;;2.00;;
19828;SDS011;10075;50.924;4.396;2024-01-15T14:50:10;7.27;;;2.13;;
19828;SDS011;10075;50.924;4.396;2024-01-15T14:52:37;9.10;;;2.40;;
19828;SDS011;10075;50.924;4.396;2024-01-15T14:55:06;8.57;;;2.33;;